Time;durP1;ratioP1;P1;durP2;ratioP2;P2;SDS_P1;SDS_P2;PMS_P1;PMS_P2;Temp;Humidity;BMP_temperature;BMP_pressure;BME280_temperature;BME280_humidity;BME280_pressure;Samples;Min_cycle;Max_cycle;Signal;HPM_P1;HPM_P2
2020/12/26 00:00:29;;;;;;;;;;;;;;;-3.80;95.39;93528.19;1059235;56;20685;-86
2020/12/26 00:01:31;;;;;;;;;;;;;;;-3.84;96.25;93527.28;1059317;56;20268;-82
2020/12/26 00:02:31;;;;;;;;;;;;;;;-3.86;95.97;93532.06;1063589;55;20181;-84
2020/12/26 00:03:32;;;;;;;;;;;;;;;-3.68;96.03;93528.28;1065638;55;20193;-82
2020/12/26 00:04:34;;;;;;;;;;;;;;;-3.70;95.93;93530.41;1061383;56;20165;-82
2020/12/26 00:05:38;;;;;;;;;;;;;;;-3.74;96.34;93520.91;1061820;55;20184;-82
2020/12/26 00:06:39;;;;;;;;;;;;;;;-3.68;97.39;93520.44;1065689;55;20158;-82
2020/12/26 00:07:39;;;;;;;;;;;;;;;-3.74;96.99;93521.69;1063596;55;20169;-83
2020/12/26 00:08:40;;;;;;;;;;;;;;;-3.71;96.94;93515.06;1061250;56;20169;-82
2020/12/26 00:09:42;;;;;;;;;;;;;;;-3.67;96.83;93515.97;1061569;56;20241;-83
2020/12/26 00:10:45;;;;;;;;;;;;;;;-3.62;95.90;93515.78;1063609;55;20176;-83
2020/12/26 00:11:45;;;;;;;;;;;;;;;-3.64;95.55;93516.13;1061429;56;20659;-82
2020/12/26 00:12:47;;;;;;;;;;;;;;;-3.57;94.96;93518.97;1061262;56;20185;-84
2020/12/26 00:13:49;;;;;;;;;;;;;;;-3.62;95.40;93516.56;1061449;55;20158;-83
2020/12/26 00:14:50;;;;;;;;;;;;;;;-3.60;96.62;93517.00;1061335;56;20312;-80
2020/12/26 00:15:51;;;;;;;;;;;;;;;-3.59;96.75;93512.56;1059206;56;20726;-81
2020/12/26 00:16:51;;;;;;;;;;;;;;;-3.63;96.43;93515.03;1063480;55;20158;-82
2020/12/26 00:17:52;;;;;;;;;;;;;;;-3.61;95.71;93514.69;1063496;55;20165;-83
2020/12/26 00:18:52;;;;;;;;;;;;;;;-3.49;94.98;93517.41;1061503;56;20185;-82
2020/12/26 00:19:53;;;;;;;;;;;;;;;-3.52;94.77;93520.63;1063633;55;20654;-84
2020/12/26 00:20:53;;;;;;;;;;;;;;;-3.44;95.45;93511.22;1063622;55;20181;-83
2020/12/26 00:21:55;;;;;;;;;;;;;;;-3.52;95.35;93518.03;1059348;56;20599;-82
2020/12/26 00:22:58;;;;;;;;;;;;;;;-3.49;95.24;93512.16;1061542;55;20673;-82
2020/12/26 00:23:58;;;;;;;;;;;;;;;-3.39;94.89;93514.41;1063523;55;20161;-81
2020/12/26 00:24:59;;;;;;;;;;;;;;;-3.38;94.85;93512.56;1061280;56;20571;-82
2020/12/26 00:26:00;;;;;;;;;;;;;;;-3.42;93.26;93514.28;1061345;56;20166;-82
2020/12/26 00:27:00;;;;;;;;;;;;;;;-3.38;93.49;93510.72;1061344;56;21167;-81
2020/12/26 00:28:00;;;;;;;;;;;;;;;-3.39;92.46;93508.41;1061372;56;20158;-84
2020/12/26 00:29:02;;;;;;;;;;;;;;;-3.41;93.26;93507.97;1061332;56;20228;-83
2020/12/26 00:30:02;;;;;;;;;;;;;;;-3.42;94.45;93506.47;1061442;56;20224;-82
2020/12/26 00:31:03;;;;;;;;;;;;;;;-3.34;93.26;93503.75;1061408;56;20756;-82
2020/12/26 00:32:04;;;;;;;;;;;;;;;-3.41;93.62;93502.75;1061085;56;20170;-81
2020/12/26 00:33:04;;;;;;;;;;;;;;;-3.38;94.00;93499.47;1063614;55;20173;-83
2020/12/26 00:34:05;;;;;;;;;;;;;;;-3.41;93.42;93502.75;1063495;55;20158;-83
2020/12/26 00:35:07;;;;;;;;;;;;;;;-3.37;94.98;93508.88;1061238;56;20653;-81
2020/12/26 00:36:12;;;;;;;;;;;;;;;-3.39;94.82;93516.25;1063808;55;20196;-82
2020/12/26 00:37:16;;;;;;;;;;;;;;;-3.36;94.74;93519.00;1063592;55;20150;-83
2020/12/26 00:38:17;;;;;;;;;;;;;;;-3.35;94.19;93507.47;1061414;56;20355;-82
2020/12/26 00:39:19;;;;;;;;;;;;;;;-3.41;95.21;93515.81;1063549;55;20756;-82
2020/12/26 00:40:19;;;;;;;;;;;;;;;-3.44;95.99;93516.44;1065535;55;20162;-82
2020/12/26 00:41:20;;;;;;;;;;;;;;;-3.44;96.30;93516.44;1061310;56;20606;-82
2020/12/26 00:42:20;;;;;;;;;;;;;;;-3.38;96.05;93512.56;1061298;56;20643;-82
2020/12/26 00:43:20;;;;;;;;;;;;;;;-3.32;95.87;93513.91;1064733;55;20165;-83
2020/12/26 00:44:21;;;;;;;;;;;;;;;-3.31;95.81;93521.41;1065721;55;20161;-82
2020/12/26 00:45:22;;;;;;;;;;;;;;;-3.34;93.94;93516.06;1061308;56;20151;-82
2020/12/26 00:46:22;;;;;;;;;;;;;;;-3.40;94.20;93512.88;1061435;56;20610;-81
2020/12/26 00:47:23;;;;;;;;;;;;;;;-3.34;94.42;93516.06;1061379;56;20157;-82
2020/12/26 00:48:23;;;;;;;;;;;;;;;-3.27;94.35;93516.31;1061536;56;20185;-82
2020/12/26 00:49:24;;;;;;;;;;;;;;;-3.23;94.04;93511.25;1061471;56;20166;-84
2020/12/26 00:50:24;;;;;;;;;;;;;;;-3.19;92.69;93510.28;1065980;55;20145;-83
2020/12/26 00:51:25;;;;;;;;;;;;;;;-3.20;92.91;93513.22;1063567;55;20177;-82
2020/12/26 00:52:25;;;;;;;;;;;;;;;-3.16;91.88;93506.25;1059126;56;20150;-82
2020/12/26 00:53:25;;;;;;;;;;;;;;;-3.19;92.28;93510.28;1059314;56;21141;-82
2020/12/26 00:54:26;;;;;;;;;;;;;;;-3.22;92.63;93505.69;1059274;56;20177;-81
2020/12/26 00:55:26;;;;;;;;;;;;;;;-3.24;92.92;93510.47;1063594;55;20634;-82
2020/12/26 00:56:27;;;;;;;;;;;;;;;-3.14;92.12;93511.94;1067723;55;20293;-82
2020/12/26 00:57:28;;;;;;;;;;;;;;;-3.15;91.76;93515.63;1061353;56;20186;-83
2020/12/26 00:58:28;;;;;;;;;;;;;;;-3.02;92.03;93514.63;1063624;55;20166;-82
2020/12/26 00:59:28;;;;;;;;;;;;;;;-3.02;91.57;93524.31;1067768;55;20597;-82
2020/12/26 01:00:29;;;;;;;;;;;;;;;-2.97;90.64;93524.88;1061282;56;20235;-83
2020/12/26 01:01:29;;;;;;;;;;;;;;;-3.00;91.09;93525.50;1057027;56;20159;-84
2020/12/26 01:02:30;;;;;;;;;;;;;;;-3.09;91.38;93522.97;1059137;56;20159;-85
2020/12/26 01:03:30;;;;;;;;;;;;;;;-3.04;91.59;93529.84;1059091;56;20146;-83
2020/12/26 01:04:31;;;;;;;;;;;;;;;-3.17;91.26;93523.78;1061248;56;20623;-82
2020/12/26 01:05:31;;;;;;;;;;;;;;;-3.21;92.17;93533.34;1063462;55;20642;-82
2020/12/26 01:06:32;;;;;;;;;;;;;;;-3.26;93.20;93523.09;1063516;55;20177;-82
2020/12/26 01:07:32;;;;;;;;;;;;;;;-3.30;93.42;93530.78;1063582;55;20157;-83
2020/12/26 01:08:33;;;;;;;;;;;;;;;-3.28;93.27;93529.72;1066053;55;20647;-82
2020/12/26 01:09:33;;;;;;;;;;;;;;;-3.28;93.38;93534.94;1061347;56;20634;-82
2020/12/26 01:10:34;;;;;;;;;;;;;;;-3.33;93.96;93528.06;1059214;56;20159;-82
2020/12/26 01:11:34;;;;;;;;;;;;;;;-3.33;94.80;93528.06;1063559;55;20189;-83
2020/12/26 01:12:35;;;;;;;;;;;;;;;-3.30;94.39;93530.03;1063529;55;20169;-81
2020/12/26 01:13:35;;;;;;;;;;;;;;;-3.27;94.10;93532.00;1057100;56;20155;-83
2020/12/26 01:14:36;;;;;;;;;;;;;;;-3.28;93.31;93533.09;1061304;56;20299;-83
2020/12/26 01:15:36;;;;;;;;;;;;;;;-3.30;94.27;93540.47;1061238;56;20150;-82
2020/12/26 01:16:37;;;;;;;;;;;;;;;-3.22;93.08;93538.91;1059163;56;20147;-83
2020/12/26 01:17:37;;;;;;;;;;;;;;;-3.11;93.57;93538.22;1063514;55;20189;-83
2020/12/26 01:18:38;;;;;;;;;;;;;;;-3.11;93.25;93546.06;1061375;56;20177;-82
2020/12/26 01:19:39;;;;;;;;;;;;;;;-3.27;93.01;93545.09;1059184;56;20181;-82
2020/12/26 01:20:39;;;;;;;;;;;;;;;-3.26;94.07;93538.00;1061204;56;20184;-81
2020/12/26 01:21:40;;;;;;;;;;;;;;;-3.20;93.60;93547.97;1063335;55;20239;-82
2020/12/26 01:22:40;;;;;;;;;;;;;;;-3.20;94.52;93542.75;1061321;56;20647;-82
2020/12/26 01:23:43;;;;;;;;;;;;;;;-3.23;95.20;93547.81;1061239;56;20591;-83
2020/12/26 01:24:44;;;;;;;;;;;;;;;-3.24;95.57;93554.16;1063373;55;20188;-83
2020/12/26 01:25:44;;;;;;;;;;;;;;;-3.25;95.56;93555.22;1061386;56;20178;-82
2020/12/26 01:26:48;;;;;;;;;;;;;;;-3.28;95.65;93553.25;1063600;55;20201;-83
2020/12/26 01:27:48;;;;;;;;;;;;;;;-3.27;95.67;93552.91;1061192;56;20218;-82
2020/12/26 01:28:49;;;;;;;;;;;;;;;-3.28;96.16;93559.25;1061306;56;20177;-82
2020/12/26 01:29:50;;;;;;;;;;;;;;;-3.25;96.97;93550.75;1061125;56;20173;-82
2020/12/26 01:30:50;;;;;;;;;;;;;;;-3.18;97.68;93551.00;1061080;56;20189;-83
2020/12/26 01:31:51;;;;;;;;;;;;;;;-3.20;97.35;93561.03;1063390;55;20572;-84
2020/12/26 01:32:52;;;;;;;;;;;;;;;-3.14;96.20;93559.75;1061240;56;20181;-82
2020/12/26 01:33:52;;;;;;;;;;;;;;;-3.11;95.17;93559.13;1061343;56;20169;-82
2020/12/26 01:34:56;;;;;;;;;;;;;;;-3.24;95.32;93567.22;1059272;56;20158;-82
2020/12/26 01:35:57;;;;;;;;;;;;;;;-3.24;95.19;93557.53;1059354;56;20186;-82
2020/12/26 01:36:57;;;;;;;;;;;;;;;-3.19;95.29;93561.78;1059185;56;20154;-83
2020/12/26 01:37:57;;;;;;;;;;;;;;;-3.16;95.04;93572.38;1059055;56;20262;-82
2020/12/26 01:38:58;;;;;;;;;;;;;;;-3.20;95.16;93568.87;1061226;56;20165;-82
2020/12/26 01:39:58;;;;;;;;;;;;;;;-3.24;94.88;93565.38;1061111;56;20170;-83
2020/12/26 01:40:59;;;;;;;;;;;;;;;-3.24;95.18;93573.22;1061188;56;20170;-81
2020/12/26 01:41:59;;;;;;;;;;;;;;;-3.13;95.49;93574.34;1061239;56;20584;-81
2020/12/26 01:43:00;;;;;;;;;;;;;;;-3.09;96.29;93580.47;1061611;56;20154;-83
2020/12/26 01:44:01;;;;;;;;;;;;;;;-3.06;96.59;93569.38;1063122;56;20158;-83
2020/12/26 01:45:02;;;;;;;;;;;;;;;-3.10;95.61;93576.34;1061448;56;20158;-84
2020/12/26 01:46:03;;;;;;;;;;;;;;;-3.17;95.46;93572.69;1061377;55;20634;-84
2020/12/26 01:47:04;;;;;;;;;;;;;;;-3.15;95.20;93570.53;1063515;55;20173;-83
2020/12/26 01:48:05;;;;;;;;;;;;;;;-2.94;94.33;93578.38;1063456;55;20181;-81
2020/12/26 01:49:07;;;;;;;;;;;;;;;-2.91;92.95;93575.87;1059276;56;20714;-85
2020/12/26 01:50:08;;;;;;;;;;;;;;;-2.90;92.90;93581.88;1063555;55;20346;-83
2020/12/26 01:51:09;;;;;;;;;;;;;;;-3.01;93.60;93580.75;1065492;55;20597;-83
2020/12/26 01:52:10;;;;;;;;;;;;;;;-2.99;94.11;93587.16;1061125;56;20169;-82
2020/12/26 01:53:11;;;;;;;;;;;;;;;-3.04;94.30;93595.97;1061285;56;20153;-81
2020/12/26 01:54:12;;;;;;;;;;;;;;;-3.06;94.93;93592.16;1063249;55;20154;-82
2020/12/26 01:55:14;;;;;;;;;;;;;;;-3.07;95.80;93599.25;1063458;55;20614;-81
2020/12/26 01:56:15;;;;;;;;;;;;;;;-3.04;94.27;93593.34;1061275;56;20170;-83
2020/12/26 01:57:17;;;;;;;;;;;;;;;-2.97;95.39;93592.88;1063526;55;20642;-83
2020/12/26 01:58:20;;;;;;;;;;;;;;;-3.05;95.28;93591.84;1063344;55;20185;-82
2020/12/26 01:59:21;;;;;;;;;;;;;;;-2.99;96.37;93587.16;1061428;55;20571;-82
2020/12/26 02:00:21;;;;;;;;;;;;;;;-2.97;95.87;93592.09;1061222;56;20158;-83
2020/12/26 02:01:32;;;;;;;;;;;;;;;-2.92;94.72;93587.44;1063297;55;20185;-82
2020/12/26 02:02:32;;;;;;;;;;;;;;;-3.06;93.26;93581.69;1068159;55;20161;-84
2020/12/26 02:03:33;;;;;;;;;;;;;;;-2.99;93.85;93583.78;1063365;55;20269;-82
2020/12/26 02:04:35;;;;;;;;;;;;;;;-2.93;92.51;93588.53;1059207;56;20182;-83
2020/12/26 02:05:35;;;;;;;;;;;;;;;-2.85;91.78;93598.16;1061275;55;20583;-83
2020/12/26 02:06:41;;;;;;;;;;;;;;;-2.86;91.81;93582.78;1061301;56;20177;-82
2020/12/26 02:07:48;;;;;;;;;;;;;;;-2.97;92.78;93585.03;1061531;56;20184;-83
2020/12/26 02:08:48;;;;;;;;;;;;;;;-2.92;93.44;93586.69;1061632;55;20177;-82
2020/12/26 02:09:50;;;;;;;;;;;;;;;-2.94;93.25;93589.63;1065785;55;20145;-83
2020/12/26 02:10:53;;;;;;;;;;;;;;;-2.88;93.02;93592.81;1061314;56;20702;-82
2020/12/26 02:11:53;;;;;;;;;;;;;;;-2.95;93.62;93584.69;1057129;56;20269;-83
2020/12/26 02:12:54;;;;;;;;;;;;;;;-2.96;94.18;93583.16;1061237;56;20249;-82
2020/12/26 02:13:56;;;;;;;;;;;;;;;-3.01;93.76;93580.75;1061184;56;20181;-83
2020/12/26 02:14:57;;;;;;;;;;;;;;;-3.01;94.12;93586.72;1059157;56;20155;-81
2020/12/26 02:16:08;;;;;;;;;;;;;;;-3.04;94.79;93585.50;1061275;56;20154;-82
2020/12/26 02:17:09;;;;;;;;;;;;;;;-2.98;94.91;93586.09;1063717;55;20162;-84
2020/12/26 02:18:10;;;;;;;;;;;;;;;-2.97;96.04;93586.88;1063378;55;20204;-83
2020/12/26 02:19:11;;;;;;;;;;;;;;;-3.07;94.61;93590.63;1061208;56;20209;-81
2020/12/26 02:20:13;;;;;;;;;;;;;;;-3.08;94.39;93584.63;1059153;56;20628;-81
2020/12/26 02:21:13;;;;;;;;;;;;;;;-3.07;94.61;93591.41;1061409;56;20196;-82
2020/12/26 02:22:14;;;;;;;;;;;;;;;-3.02;95.51;93587.81;1063457;55;20193;-82
2020/12/26 02:23:14;;;;;;;;;;;;;;;-2.98;94.42;93587.97;1059039;56;20643;-82
2020/12/26 02:24:15;;;;;;;;;;;;;;;-2.91;94.51;93596.81;1059029;56;20177;-83
2020/12/26 02:25:15;;;;;;;;;;;;;;;-2.84;93.76;93591.09;1063369;55;20267;-82
2020/12/26 02:26:26;;;;;;;;;;;;;;;-2.74;93.38;93590.69;1061216;56;20185;-81
2020/12/26 02:27:28;;;;;;;;;;;;;;;-2.72;92.32;93596.38;1059848;56;20162;-83
2020/12/26 02:28:28;;;;;;;;;;;;;;;-2.77;92.36;93588.69;1063506;55;20553;-83
2020/12/26 02:29:29;;;;;;;;;;;;;;;-2.84;93.04;93594.47;1065812;55;20192;-83
2020/12/26 02:30:29;;;;;;;;;;;;;;;-2.91;92.57;93586.34;1061149;56;20706;-83
2020/12/26 02:31:30;;;;;;;;;;;;;;;-2.93;93.46;93587.78;1061282;56;20158;-82
2020/12/26 02:32:31;;;;;;;;;;;;;;;-2.89;93.52;93588.66;1065599;55;20158;-82
2020/12/26 02:33:34;;;;;;;;;;;;;;;-3.00;93.82;93584.88;1061173;56;20166;-82
2020/12/26 02:34:35;;;;;;;;;;;;;;;-2.99;94.03;93579.31;1061476;55;20259;-85
2020/12/26 02:35:35;;;;;;;;;;;;;;;-3.01;95.20;93581.50;1063423;55;20237;-82
2020/12/26 02:36:36;;;;;;;;;;;;;;;-3.02;95.23;93581.84;1061158;56;20166;-84
2020/12/26 02:37:37;;;;;;;;;;;;;;;-3.10;94.49;93581.56;1059126;56;20155;-81
2020/12/26 02:38:39;;;;;;;;;;;;;;;-3.02;94.90;93585.22;1059162;56;20184;-83
2020/12/26 02:39:40;;;;;;;;;;;;;;;-3.09;95.45;93585.69;1063407;55;20615;-83
2020/12/26 02:40:40;;;;;;;;;;;;;;;-3.02;95.75;93585.22;1063192;55;20302;-82
2020/12/26 02:41:41;;;;;;;;;;;;;;;-3.04;96.38;93584.75;1058987;56;20151;-82
2020/12/26 02:42:41;;;;;;;;;;;;;;;-3.02;95.51;93584.44;1058933;55;20270;-82
2020/12/26 02:43:42;;;;;;;;;;;;;;;-2.99;96.03;93591.63;1061115;56;20197;-83
2020/12/26 02:44:42;;;;;;;;;;;;;;;-3.02;95.64;93584.44;1063331;55;20173;-82
2020/12/26 02:45:43;;;;;;;;;;;;;;;-2.87;95.38;93589.09;1061207;56;20173;-82
2020/12/26 02:46:48;;;;;;;;;;;;;;;-2.89;95.32;93588.66;1063369;55;20595;-82
2020/12/26 02:47:48;;;;;;;;;;;;;;;-2.91;94.92;93586.34;1063620;55;20198;-81
2020/12/26 02:48:49;;;;;;;;;;;;;;;-2.98;94.02;93580.88;1063307;55;20162;-83
2020/12/26 02:49:49;;;;;;;;;;;;;;;-2.99;94.99;93581.19;1063217;55;20201;-82
2020/12/26 02:50:50;;;;;;;;;;;;;;;-2.96;95.03;93581.31;1063407;55;20626;-84
2020/12/26 02:51:50;;;;;;;;;;;;;;;-3.00;94.34;93585.66;1061386;56;20162;-83
2020/12/26 02:52:51;;;;;;;;;;;;;;;-2.91;95.76;93588.19;1063275;56;21120;-83
2020/12/26 02:53:51;;;;;;;;;;;;;;;-2.93;95.00;93582.53;1065487;55;20192;-82
2020/12/26 02:54:52;;;;;;;;;;;;;;;-2.71;93.77;93584.06;1065556;55;20683;-82
2020/12/26 02:55:52;;;;;;;;;;;;;;;-2.72;92.97;93590.34;1065571;55;20180;-82
2020/12/26 02:56:53;;;;;;;;;;;;;;;-2.80;93.12;93590.13;1065594;55;20161;-83
2020/12/26 02:57:53;;;;;;;;;;;;;;;-2.79;92.71;93588.28;1063280;56;20162;-82
2020/12/26 02:58:54;;;;;;;;;;;;;;;-2.89;92.93;93583.44;1063490;56;20162;-82
2020/12/26 02:59:54;;;;;;;;;;;;;;;-2.92;93.33;93589.28;1065448;55;20158;-82
2020/12/26 03:00:55;;;;;;;;;;;;;;;-2.98;93.98;93590.56;1063427;56;20635;-81
2020/12/26 03:01:55;;;;;;;;;;;;;;;-2.97;94.50;93590.25;1063338;56;20193;-83
2020/12/26 03:02:56;;;;;;;;;;;;;;;-2.81;93.99;93595.66;1061204;56;20655;-82
2020/12/26 03:03:56;;;;;;;;;;;;;;;-2.94;93.91;93594.84;1061177;56;20167;-82
2020/12/26 03:04:57;;;;;;;;;;;;;;;-2.95;94.77;93589.91;1065567;55;20161;-84
2020/12/26 03:05:57;;;;;;;;;;;;;;;-2.87;94.54;93596.94;1063301;56;20185;-82
2020/12/26 03:06:58;;;;;;;;;;;;;;;-2.94;94.05;93591.44;1063252;56;20669;-81
2020/12/26 03:07:58;;;;;;;;;;;;;;;-2.95;95.19;93587.31;1065549;55;20169;-82
2020/12/26 03:08:59;;;;;;;;;;;;;;;-2.94;94.37;93597.47;1061070;56;20185;-82
2020/12/26 03:10:00;;;;;;;;;;;;;;;-2.96;94.77;93591.00;1059032;56;21069;-82
2020/12/26 03:11:01;;;;;;;;;;;;;;;-2.91;93.86;93593.44;1063364;56;20255;-84
2020/12/26 03:12:02;;;;;;;;;;;;;;;-2.99;94.24;93592.41;1065386;55;20154;-82
2020/12/26 03:13:02;;;;;;;;;;;;;;;-3.01;94.79;93591.97;1063326;55;20162;-83
2020/12/26 03:14:04;;;;;;;;;;;;;;;-3.00;95.41;93593.50;1061223;56;20189;-84
2020/12/26 03:15:05;;;;;;;;;;;;;;;-2.98;94.47;93599.19;1061207;56;20631;-83
2020/12/26 03:16:06;;;;;;;;;;;;;;;-2.91;93.25;93603.88;1063257;55;20180;-84
2020/12/26 03:17:06;;;;;;;;;;;;;;;-2.94;93.11;93594.06;1065482;55;20582;-84
2020/12/26 03:18:07;;;;;;;;;;;;;;;-2.84;91.65;93597.06;1065392;55;20181;-82
2020/12/26 03:19:07;;;;;;;;;;;;;;;-2.85;91.03;93600.03;1063306;56;20158;-83
2020/12/26 03:20:08;;;;;;;;;;;;;;;-2.91;92.98;93594.19;1061137;56;20628;-81
2020/12/26 03:21:11;;;;;;;;;;;;;;;-2.95;93.80;93600.38;1063487;55;20161;-81
2020/12/26 03:22:11;;;;;;;;;;;;;;;-2.89;94.16;93604.34;1065292;55;20142;-83
2020/12/26 03:23:12;;;;;;;;;;;;;;;-2.99;93.63;93610.69;1061109;56;20607;-83
2020/12/26 03:24:12;;;;;;;;;;;;;;;-2.94;94.06;93602.69;1063299;56;20631;-84
2020/12/26 03:25:13;;;;;;;;;;;;;;;-2.97;95.15;93597.34;1063320;56;20642;-82
2020/12/26 03:26:13;;;;;;;;;;;;;;;-3.00;93.02;93605.81;1061103;56;20162;-82
2020/12/26 03:27:14;;;;;;;;;;;;;;;-3.04;94.74;93605.66;1063410;56;20673;-83
2020/12/26 03:28:15;;;;;;;;;;;;;;;-3.08;94.57;93596.94;1063238;55;20169;-82
2020/12/26 03:29:16;;;;;;;;;;;;;;;-3.09;92.52;93603.25;1063251;55;20642;-82
2020/12/26 03:30:17;;;;;;;;;;;;;;;-3.12;94.17;93607.25;1063219;56;20185;-83
2020/12/26 03:31:17;;;;;;;;;;;;;;;-3.13;94.71;93610.19;1058934;56;20178;-83
2020/12/26 03:32:18;;;;;;;;;;;;;;;-3.14;95.65;93604.19;1061171;56;20162;-83
2020/12/26 03:33:18;;;;;;;;;;;;;;;-3.25;94.16;93612.72;1065482;55;20250;-83
2020/12/26 03:34:19;;;;;;;;;;;;;;;-3.32;92.69;93611.38;1063249;56;20207;-82
2020/12/26 03:35:19;;;;;;;;;;;;;;;-3.45;92.20;93614.97;1061055;56;20193;-82
2020/12/26 03:36:20;;;;;;;;;;;;;;;-3.43;92.77;93612.03;1063187;56;20169;-86
2020/12/26 03:37:20;;;;;;;;;;;;;;;-3.57;92.23;93612.25;1063145;56;20142;-83
2020/12/26 03:38:21;;;;;;;;;;;;;;;-3.52;93.21;93616.53;1063222;56;20258;-84
2020/12/26 03:39:21;;;;;;;;;;;;;;;-3.59;93.77;93617.03;1063240;56;20177;-82
2020/12/26 03:40:22;;;;;;;;;;;;;;;-3.58;94.19;93618.56;1063353;55;20188;-82
2020/12/26 03:41:23;;;;;;;;;;;;;;;-3.63;93.23;93621.37;1063399;55;20161;-85
2020/12/26 03:42:24;;;;;;;;;;;;;;;-3.60;92.47;93623.31;1063331;56;20180;-83
2020/12/26 03:43:24;;;;;;;;;;;;;;;-3.72;92.81;93621.41;1063040;55;20193;-83
2020/12/26 03:44:25;;;;;;;;;;;;;;;-3.74;92.59;93631.38;1063142;56;20158;-83
2020/12/26 03:45:25;;;;;;;;;;;;;;;-3.67;93.26;93631.66;1061085;56;21189;-82
2020/12/26 03:46:26;;;;;;;;;;;;;;;-3.60;93.41;93626.72;1061120;56;20187;-82
2020/12/26 03:47:26;;;;;;;;;;;;;;;-3.62;93.74;93641.19;1061175;56;20982;-84
2020/12/26 03:48:26;;;;;;;;;;;;;;;-3.62;95.45;93630.72;1063188;56;20215;-86
2020/12/26 03:49:27;;;;;;;;;;;;;;;-3.60;95.04;93634.56;1063128;56;20586;-82
2020/12/26 03:50:27;;;;;;;;;;;;;;;-3.59;93.98;93636.09;1060990;56;20161;-82
2020/12/26 03:51:28;;;;;;;;;;;;;;;-3.63;93.61;93643.03;1063291;56;20642;-81
2020/12/26 03:52:28;;;;;;;;;;;;;;;-3.72;94.26;93634.47;1061013;56;20961;-81
2020/12/26 03:53:29;;;;;;;;;;;;;;;-3.62;94.17;93641.94;1058925;56;20182;-82
2020/12/26 03:54:29;;;;;;;;;;;;;;;-3.56;95.69;93635.47;1060959;56;20150;-81
2020/12/26 03:55:30;;;;;;;;;;;;;;;-3.51;96.37;93639.75;1060961;56;20158;-83
2020/12/26 03:56:30;;;;;;;;;;;;;;;-3.56;95.91;93639.91;1063216;56;20149;-82
2020/12/26 03:57:31;;;;;;;;;;;;;;;-3.48;95.75;93633.12;1065302;55;20169;-83
2020/12/26 03:58:31;;;;;;;;;;;;;;;-3.60;94.54;93626.72;1063194;56;20634;-83
2020/12/26 03:59:32;;;;;;;;;;;;;;;-3.57;94.67;93631.31;1061026;56;20166;-85
2020/12/26 04:00:32;;;;;;;;;;;;;;;-3.53;95.68;93630.69;1063150;56;20192;-82
2020/12/26 04:01:32;;;;;;;;;;;;;;;-3.65;95.03;93629.50;1061057;56;20342;-83
2020/12/26 04:02:33;;;;;;;;;;;;;;;-3.63;95.00;93629.97;1059022;56;20628;-82
2020/12/26 04:03:35;;;;;;;;;;;;;;;-3.59;95.16;93627.50;1060976;56;20182;-83
2020/12/26 04:04:36;;;;;;;;;;;;;;;-3.52;95.99;93632.22;1063280;56;20184;-81
2020/12/26 04:05:36;;;;;;;;;;;;;;;-3.59;96.01;93624.88;1063227;56;20172;-82
2020/12/26 04:06:37;;;;;;;;;;;;;;;-3.46;95.87;93626.50;1063189;55;20736;-81
2020/12/26 04:07:37;;;;;;;;;;;;;;;-3.48;95.62;93628.66;1065661;55;20149;-82
2020/12/26 04:08:37;;;;;;;;;;;;;;;-3.45;95.03;93625.44;1061366;56;20173;-83
2020/12/26 04:09:38;;;;;;;;;;;;;;;-3.44;96.42;93626.94;1059209;56;20146;-83
2020/12/26 04:10:38;;;;;;;;;;;;;;;-3.50;96.70;93620.38;1063469;55;20158;-82
2020/12/26 04:11:39;;;;;;;;;;;;;;;-3.48;96.85;93625.28;1065762;55;20166;-82
2020/12/26 04:12:40;;;;;;;;;;;;;;;-3.44;95.93;93620.97;1061344;56;20184;-82
2020/12/26 04:13:40;;;;;;;;;;;;;;;-3.61;95.17;93614.72;1061409;56;20689;-83
2020/12/26 04:14:41;;;;;;;;;;;;;;;-3.52;94.91;93622.53;1061328;56;20159;-82
2020/12/26 04:15:41;;;;;;;;;;;;;;;-3.62;93.54;93622.88;1061287;56;20166;-82
2020/12/26 04:16:42;;;;;;;;;;;;;;;-3.58;94.50;93618.56;1063348;55;21249;-83
2020/12/26 04:17:42;;;;;;;;;;;;;;;-3.69;94.39;93623.34;1063451;55;20206;-82
2020/12/26 04:18:43;;;;;;;;;;;;;;;-3.68;94.45;93626.75;1065846;55;20170;-82
2020/12/26 04:19:43;;;;;;;;;;;;;;;-3.73;94.72;93624.31;1063566;55;20189;-82
2020/12/26 04:20:43;;;;;;;;;;;;;;;-3.71;93.67;93635.97;1059218;56;20162;-83
2020/12/26 04:21:44;;;;;;;;;;;;;;;-3.68;94.34;93622.31;1061476;56;20155;-85
2020/12/26 04:22:44;;;;;;;;;;;;;;;-3.67;94.39;93625.69;1065736;55;20189;-81
2020/12/26 04:23:45;;;;;;;;;;;;;;;-3.60;95.52;93625.94;1065852;55;20154;-83
2020/12/26 04:24:45;;;;;;;;;;;;;;;-3.65;95.14;93626.88;1061357;56;20157;-82
2020/12/26 04:25:46;;;;;;;;;;;;;;;-3.55;95.75;93631.00;1061336;56;20677;-83
2020/12/26 04:26:46;;;;;;;;;;;;;;;-3.59;95.78;93635.34;1061248;56;20315;-84
2020/12/26 04:27:47;;;;;;;;;;;;;;;-3.60;95.98;93631.16;1059211;56;20294;-82
2020/12/26 04:28:47;;;;;;;;;;;;;;;-3.53;94.89;93631.44;1063536;55;20295;-83
2020/12/26 04:29:48;;;;;;;;;;;;;;;-3.52;94.43;93632.97;1063491;55;20188;-83
2020/12/26 04:30:49;;;;;;;;;;;;;;;-3.49;94.21;93628.97;1059229;56;20162;-82
2020/12/26 04:31:49;;;;;;;;;;;;;;;-3.51;94.31;93625.91;1059208;56;20189;-83
2020/12/26 04:32:51;;;;;;;;;;;;;;;-3.52;93.79;93627.75;1061297;56;20673;-82
2020/12/26 04:33:51;;;;;;;;;;;;;;;-3.50;90.21;93625.59;1059156;56;20767;-83
2020/12/26 04:34:51;;;;;;;;;;;;;;;-3.46;91.69;93633.59;1061185;56;20166;-83
2020/12/26 04:35:52;;;;;;;;;;;;;;;-3.45;90.39;93630.66;1065530;55;20193;-84
2020/12/26 04:36:52;;;;;;;;;;;;;;;-3.52;91.08;93640.81;1061247;56;20662;-83
2020/12/26 04:37:53;;;;;;;;;;;;;;;-3.58;92.61;93632.41;1061347;56;20177;-82
2020/12/26 04:38:53;;;;;;;;;;;;;;;-3.50;94.26;93627.47;1061588;56;20170;-82
2020/12/26 04:39:54;;;;;;;;;;;;;;;-3.55;93.84;93633.62;1061398;56;20181;-82
2020/12/26 04:40:54;;;;;;;;;;;;;;;-3.52;92.64;93637.44;1063579;55;20198;-83
2020/12/26 04:41:55;;;;;;;;;;;;;;;-3.46;92.16;93636.22;1063494;55;20302;-84
2020/12/26 04:42:56;;;;;;;;;;;;;;;-3.50;90.73;93632.69;1061753;55;20296;-83
2020/12/26 04:43:56;;;;;;;;;;;;;;;-3.55;92.44;93623.19;1065460;55;20165;-85
2020/12/26 04:44:57;;;;;;;;;;;;;;;-3.60;91.06;93629.34;1061369;56;20170;-83
2020/12/26 04:45:58;;;;;;;;;;;;;;;-3.55;91.20;93629.16;1061386;56;20154;-82
2020/12/26 04:47:05;;;;;;;;;;;;;;;-3.64;91.84;93631.06;1065643;55;20578;-84
2020/12/26 04:48:07;;;;;;;;;;;;;;;-3.53;93.91;93633.31;1061304;56;20271;-83
2020/12/26 04:49:11;;;;;;;;;;;;;;;-3.46;93.86;93641.44;1061438;55;20154;-82
2020/12/26 04:50:12;;;;;;;;;;;;;;;-3.46;95.37;93638.81;1061244;56;20166;-84
2020/12/26 04:51:15;;;;;;;;;;;;;;;-3.43;92.44;93633.72;1059233;56;20185;-83
2020/12/26 04:52:16;;;;;;;;;;;;;;;-3.45;92.79;93632.50;1063462;55;20157;-83
2020/12/26 04:53:17;;;;;;;;;;;;;;;-3.38;91.92;93641.41;1059142;56;20564;-82
2020/12/26 04:54:32;;;;;;;;;;;;;;;-3.42;91.73;93637.88;1057337;56;20178;-83
2020/12/26 04:55:35;;;;;;;;;;;;;;;-3.27;92.90;93635.78;1058200;56;20699;-83
2020/12/26 04:56:43;;;;;;;;;;;;;;;-3.36;92.13;93641.06;1057241;56;20162;-84
2020/12/26 04:57:45;;;;;;;;;;;;;;;-3.48;92.10;93641.72;1061951;55;20267;-83
2020/12/26 04:58:47;;;;;;;;;;;;;;;-3.49;92.79;93642.81;1061336;56;20627;-83
2020/12/26 04:59:49;;;;;;;;;;;;;;;-3.50;93.79;93640.53;1061536;55;20162;-83
2020/12/26 05:00:49;;;;;;;;;;;;;;;-3.41;93.61;93643.87;1061300;56;20224;-84
2020/12/26 05:01:51;;;;;;;;;;;;;;;-3.37;93.58;93652.59;1061302;56;20177;-82
2020/12/26 05:02:55;;;;;;;;;;;;;;;-3.46;91.11;93644.03;1061499;56;20170;-83
2020/12/26 05:03:59;;;;;;;;;;;;;;;-3.38;91.40;93644.00;1061283;56;20202;-82
2020/12/26 05:05:00;;;;;;;;;;;;;;;-3.33;93.81;93658.75;1061464;56;20177;-84
2020/12/26 05:06:04;;;;;;;;;;;;;;;-3.41;93.89;93649.09;1059110;56;20186;-84
2020/12/26 05:07:04;;;;;;;;;;;;;;;-3.52;93.65;93653.88;1061493;56;20742;-81
2020/12/26 05:08:15;;;;;;;;;;;;;;;-3.49;94.78;93652.50;1059319;56;20659;-83
2020/12/26 05:09:16;;;;;;;;;;;;;;;-3.55;94.47;93651.91;1061896;55;20249;-81
2020/12/26 05:10:16;;;;;;;;;;;;;;;-3.55;93.83;93650.06;1061262;56;20194;-81
2020/12/26 05:11:19;;;;;;;;;;;;;;;-3.55;92.47;93652.69;1059285;56;20193;-82
2020/12/26 05:12:20;;;;;;;;;;;;;;;-3.45;93.40;93651.56;1063561;55;20210;-83
2020/12/26 05:13:20;;;;;;;;;;;;;;;-3.34;94.54;93650.09;1063337;55;20197;-82
2020/12/26 05:14:24;;;;;;;;;;;;;;;-3.41;93.55;93649.09;1061566;56;20158;-81
2020/12/26 05:15:25;;;;;;;;;;;;;;;-3.41;93.83;93654.31;1063447;55;20653;-82
2020/12/26 05:16:26;;;;;;;;;;;;;;;-3.32;94.29;93655.03;1061216;56;20173;-84
2020/12/26 05:17:29;;;;;;;;;;;;;;;-3.32;95.34;93653.19;1059334;56;20305;-82
2020/12/26 05:18:29;;;;;;;;;;;;;;;-3.36;94.78;93649.66;1061245;56;20721;-83